sensor_id;sensor_type;location;lat;lon;timestamp;P1;durP1;ratioP1;P2;durP2;ratioP2
21615;SDS011;10970;48.714;9.584;2023-03-23T00:01:00;6.27;;;4.20;;
21615;SDS011;10970;48.714;9.584;2023-03-23T00:03:27;5.67;;;4.57;;
21615;SDS011;10970;48.714;9.584;2023-03-23T00:05:54;5.63;;;4.23;;
21615;SDS011;10970;48.714;9.584;2023-03-23T00:08:24;6.57;;;4.57;;
21615;SDS011;10970;48.714;9.584;2023-03-23T00:10:51;4.83;;;4.20;;
21615;SDS011;10970;48.714;9.584;2023-03-23T00:13:18;6.47;;;5.30;;
21615;SDS011;10970;48.714;9.584;2023-03-23T00:15:45;6.60;;;5.20;;
21615;SDS011;10970;48.714;9.584;2023-03-23T00:18:13;6.10;;;4.17;;
21615;SDS011;10970;48.714;9.584;2023-03-23T00:20:54;5.37;;;4.87;;
21615;SDS011;10970;48.714;9.584;2023-03-23T00:23:22;5.53;;;4.40;;
21615;SDS011;10970;48.714;9.584;2023-03-23T00:25:50;4.87;;;4.20;;
21615;SDS011;10970;48.714;9.584;2023-03-23T00:28:18;9.23;;;4.73;;
21615;SDS011;10970;48.714;9.584;2023-03-23T00:30:57;6.20;;;3.93;;
21615;SDS011;10970;48.714;9.584;2023-03-23T00:33:24;3.93;;;3.60;;
21615;SDS011;10970;48.714;9.584;2023-03-23T00:35:52;7.20;;;4.33;;
21615;SDS011;10970;48.714;9.584;2023-03-23T00:38:18;5.03;;;4.50;;
21615;SDS011;10970;48.714;9.584;2023-03-23T00:40:45;5.73;;;3.80;;
21615;SDS011;10970;48.714;9.584;2023-03-23T00:43:13;4.50;;;4.07;;
21615;SDS011;10970;48.714;9.584;2023-03-23T00:45:42;4.40;;;4.10;;
21615;SDS011;10970;48.714;9.584;2023-03-23T00:48:24;3.63;;;3.33;;
21615;SDS011;10970;48.714;9.584;2023-03-23T00:50:50;3.60;;;2.90;;
21615;SDS011;10970;48.714;9.584;2023-03-23T00:53:17;5.60;;;3.40;;
21615;SDS011;10970;48.714;9.584;2023-03-23T00:55:44;4.63;;;3.77;;
21615;SDS011;10970;48.714;9.584;2023-03-23T00:58:11;5.40;;;4.07;;
21615;SDS011;10970;48.714;9.584;2023-03-23T01:00:38;7.03;;;4.80;;
21615;SDS011;10970;48.714;9.584;2023-03-23T01:03:04;10.27;;;4.10;;
21615;SDS011;10970;48.714;9.584;2023-03-23T01:05:36;4.53;;;4.13;;
21615;SDS011;10970;48.714;9.584;2023-03-23T01:08:04;5.63;;;5.00;;
21615;SDS011;10970;48.714;9.584;2023-03-23T01:10:30;6.13;;;4.10;;
21615;SDS011;10970;48.714;9.584;2023-03-23T01:13:04;6.93;;;5.03;;
21615;SDS011;10970;48.714;9.584;2023-03-23T01:15:30;6.90;;;4.07;;
21615;SDS011;10970;48.714;9.584;2023-03-23T01:17:56;6.30;;;4.57;;
21615;SDS011;10970;48.714;9.584;2023-03-23T01:20:22;8.83;;;4.83;;
21615;SDS011;10970;48.714;9.584;2023-03-23T01:22:49;4.60;;;4.20;;
21615;SDS011;10970;48.714;9.584;2023-03-23T01:25:15;5.17;;;4.23;;
21615;SDS011;10970;48.714;9.584;2023-03-23T01:27:41;5.03;;;4.30;;
21615;SDS011;10970;48.714;9.584;2023-03-23T01:30:07;5.50;;;4.50;;
21615;SDS011;10970;48.714;9.584;2023-03-23T01:32:35;5.90;;;4.77;;
21615;SDS011;10970;48.714;9.584;2023-03-23T01:35:01;5.33;;;4.83;;
21615;SDS011;10970;48.714;9.584;2023-03-23T01:37:26;6.03;;;5.43;;
21615;SDS011;10970;48.714;9.584;2023-03-23T01:39:53;8.20;;;4.57;;
21615;SDS011;10970;48.714;9.584;2023-03-23T01:42:23;4.80;;;4.30;;
21615;SDS011;10970;48.714;9.584;2023-03-23T01:47:15;4.80;;;4.40;;
21615;SDS011;10970;48.714;9.584;2023-03-23T01:49:44;7.90;;;5.00;;
21615;SDS011;10970;48.714;9.584;2023-03-23T01:52:14;3.97;;;3.60;;
21615;SDS011;10970;48.714;9.584;2023-03-23T01:54:46;5.70;;;4.23;;
21615;SDS011;10970;48.714;9.584;2023-03-23T01:57:14;7.40;;;4.40;;
21615;SDS011;10970;48.714;9.584;2023-03-23T01:59:47;5.00;;;4.50;;
21615;SDS011;10970;48.714;9.584;2023-03-23T02:02:16;9.30;;;5.07;;
21615;SDS011;10970;48.714;9.584;2023-03-23T02:04:44;7.80;;;5.10;;
21615;SDS011;10970;48.714;9.584;2023-03-23T02:07:11;5.23;;;4.73;;
21615;SDS011;10970;48.714;9.584;2023-03-23T02:09:39;6.23;;;4.70;;
21615;SDS011;10970;48.714;9.584;2023-03-23T02:12:04;6.80;;;5.30;;
21615;SDS011;10970;48.714;9.584;2023-03-23T02:14:30;5.77;;;4.87;;
21615;SDS011;10970;48.714;9.584;2023-03-23T02:17:09;5.27;;;4.77;;
21615;SDS011;10970;48.714;9.584;2023-03-23T02:28:25;6.97;;;4.47;;
21615;SDS011;10970;48.714;9.584;2023-03-23T02:31:22;6.67;;;4.47;;
21615;SDS011;10970;48.714;9.584;2023-03-23T02:36:50;3.97;;;3.67;;
21615;SDS011;10970;48.714;9.584;2023-03-23T02:39:24;4.50;;;4.07;;
21615;SDS011;10970;48.714;9.584;2023-03-23T02:41:56;4.90;;;4.00;;
21615;SDS011;10970;48.714;9.584;2023-03-23T02:44:27;3.87;;;3.50;;
21615;SDS011;10970;48.714;9.584;2023-03-23T02:46:55;4.83;;;3.80;;
21615;SDS011;10970;48.714;9.584;2023-03-23T02:49:22;3.53;;;3.23;;
21615;SDS011;10970;48.714;9.584;2023-03-23T02:51:50;3.90;;;3.00;;
21615;SDS011;10970;48.714;9.584;2023-03-23T02:54:18;3.77;;;3.47;;
21615;SDS011;10970;48.714;9.584;2023-03-23T02:56:47;6.07;;;3.77;;
21615;SDS011;10970;48.714;9.584;2023-03-23T02:59:13;5.57;;;4.40;;
21615;SDS011;10970;48.714;9.584;2023-03-23T03:04:05;4.87;;;4.03;;
21615;SDS011;10970;48.714;9.584;2023-03-23T03:06:45;6.50;;;4.50;;
21615;SDS011;10970;48.714;9.584;2023-03-23T03:11:50;4.30;;;3.90;;
21615;SDS011;10970;48.714;9.584;2023-03-23T03:14:23;6.77;;;4.83;;
21615;SDS011;10970;48.714;9.584;2023-03-23T03:19:31;3.70;;;3.40;;
21615;SDS011;10970;48.714;9.584;2023-03-23T03:22:00;3.93;;;3.53;;
21615;SDS011;10970;48.714;9.584;2023-03-23T03:24:28;3.57;;;3.27;;
21615;SDS011;10970;48.714;9.584;2023-03-23T03:26:56;3.67;;;3.37;;
21615;SDS011;10970;48.714;9.584;2023-03-23T03:29:28;4.17;;;3.77;;
21615;SDS011;10970;48.714;9.584;2023-03-23T03:31:58;4.97;;;3.67;;
21615;SDS011;10970;48.714;9.584;2023-03-23T03:34:26;3.97;;;3.30;;
21615;SDS011;10970;48.714;9.584;2023-03-23T03:36:53;4.27;;;3.97;;
21615;SDS011;10970;48.714;9.584;2023-03-23T03:39:23;4.50;;;4.10;;
21615;SDS011;10970;48.714;9.584;2023-03-23T03:41:50;3.77;;;3.50;;
21615;SDS011;10970;48.714;9.584;2023-03-23T03:44:16;6.83;;;3.90;;
21615;SDS011;10970;48.714;9.584;2023-03-23T03:46:41;4.20;;;3.17;;
21615;SDS011;10970;48.714;9.584;2023-03-23T03:49:08;5.40;;;3.40;;
21615;SDS011;10970;48.714;9.584;2023-03-23T03:51:39;3.53;;;3.23;;
21615;SDS011;10970;48.714;9.584;2023-03-23T03:54:05;3.73;;;3.23;;
21615;SDS011;10970;48.714;9.584;2023-03-23T03:56:31;4.90;;;2.90;;
21615;SDS011;10970;48.714;9.584;2023-03-23T03:59:00;3.83;;;3.20;;
21615;SDS011;10970;48.714;9.584;2023-03-23T04:01:27;4.33;;;3.50;;
21615;SDS011;10970;48.714;9.584;2023-03-23T04:03:53;5.30;;;4.20;;
21615;SDS011;10970;48.714;9.584;2023-03-23T04:06:19;3.80;;;3.50;;
21615;SDS011;10970;48.714;9.584;2023-03-23T04:08:46;3.47;;;3.17;;
21615;SDS011;10970;48.714;9.584;2023-03-23T04:11:13;7.43;;;4.07;;
21615;SDS011;10970;48.714;9.584;2023-03-23T04:13:40;4.30;;;3.90;;
21615;SDS011;10970;48.714;9.584;2023-03-23T04:16:06;3.50;;;3.20;;
21615;SDS011;10970;48.714;9.584;2023-03-23T04:18:33;4.70;;;3.90;;
21615;SDS011;10970;48.714;9.584;2023-03-23T04:21:00;3.87;;;3.53;;
21615;SDS011;10970;48.714;9.584;2023-03-23T04:23:27;4.47;;;4.07;;
21615;SDS011;10970;48.714;9.584;2023-03-23T04:25:55;5.43;;;3.77;;
21615;SDS011;10970;48.714;9.584;2023-03-23T04:28:23;4.80;;;3.70;;
21615;SDS011;10970;48.714;9.584;2023-03-23T04:30:52;3.67;;;3.37;;
21615;SDS011;10970;48.714;9.584;2023-03-23T04:33:19;3.13;;;2.90;;
21615;SDS011;10970;48.714;9.584;2023-03-23T04:35:50;2.17;;;1.93;;
21615;SDS011;10970;48.714;9.584;2023-03-23T04:38:17;5.80;;;5.00;;
21615;SDS011;10970;48.714;9.584;2023-03-23T04:40:48;4.97;;;4.33;;
21615;SDS011;10970;48.714;9.584;2023-03-23T04:43:20;9.43;;;5.10;;
21615;SDS011;10970;48.714;9.584;2023-03-23T04:45:54;4.50;;;4.10;;
21615;SDS011;10970;48.714;9.584;2023-03-23T04:48:25;4.30;;;3.90;;
21615;SDS011;10970;48.714;9.584;2023-03-23T04:50:53;7.37;;;5.37;;
21615;SDS011;10970;48.714;9.584;2023-03-23T04:53:19;5.93;;;4.80;;
21615;SDS011;10970;48.714;9.584;2023-03-23T04:55:45;4.50;;;4.10;;
21615;SDS011;10970;48.714;9.584;2023-03-23T04:58:12;7.40;;;3.90;;
21615;SDS011;10970;48.714;9.584;2023-03-23T05:00:39;4.30;;;3.70;;
21615;SDS011;10970;48.714;9.584;2023-03-23T05:03:08;3.20;;;2.90;;
21615;SDS011;10970;48.714;9.584;2023-03-23T05:05:41;2.83;;;2.60;;
21615;SDS011;10970;48.714;9.584;2023-03-23T05:08:07;2.80;;;2.60;;
21615;SDS011;10970;48.714;9.584;2023-03-23T05:10:33;3.17;;;2.87;;
21615;SDS011;10970;48.714;9.584;2023-03-23T05:12:58;2.83;;;2.63;;
21615;SDS011;10970;48.714;9.584;2023-03-23T05:15:24;4.80;;;3.43;;
21615;SDS011;10970;48.714;9.584;2023-03-23T05:17:53;3.57;;;3.10;;
21615;SDS011;10970;48.714;9.584;2023-03-23T05:20:19;3.43;;;2.83;;
21615;SDS011;10970;48.714;9.584;2023-03-23T05:25:13;4.93;;;4.40;;
21615;SDS011;10970;48.714;9.584;2023-03-23T05:27:39;5.23;;;4.33;;
21615;SDS011;10970;48.714;9.584;2023-03-23T05:30:08;4.53;;;3.87;;
21615;SDS011;10970;48.714;9.584;2023-03-23T05:32:34;4.83;;;3.97;;
21615;SDS011;10970;48.714;9.584;2023-03-23T05:35:02;4.00;;;3.20;;
21615;SDS011;10970;48.714;9.584;2023-03-23T05:37:28;4.70;;;4.30;;
21615;SDS011;10970;48.714;9.584;2023-03-23T05:39:57;4.00;;;3.60;;
21615;SDS011;10970;48.714;9.584;2023-03-23T05:42:26;7.30;;;6.07;;
21615;SDS011;10970;48.714;9.584;2023-03-23T05:44:52;11.23;;;9.10;;
21615;SDS011;10970;48.714;9.584;2023-03-23T05:47:18;8.83;;;4.40;;
21615;SDS011;10970;48.714;9.584;2023-03-23T05:49:44;8.30;;;4.20;;
21615;SDS011;10970;48.714;9.584;2023-03-23T05:52:11;3.77;;;3.47;;
21615;SDS011;10970;48.714;9.584;2023-03-23T05:54:36;7.53;;;3.90;;
21615;SDS011;10970;48.714;9.584;2023-03-23T05:57:02;3.90;;;3.53;;
21615;SDS011;10970;48.714;9.584;2023-03-23T05:59:28;4.17;;;3.77;;
21615;SDS011;10970;48.714;9.584;2023-03-23T06:01:54;3.90;;;2.90;;
21615;SDS011;10970;48.714;9.584;2023-03-23T06:04:20;3.90;;;3.57;;
21615;SDS011;10970;48.714;9.584;2023-03-23T06:06:49;4.27;;;3.57;;
21615;SDS011;10970;48.714;9.584;2023-03-23T06:09:17;4.90;;;3.43;;
21615;SDS011;10970;48.714;9.584;2023-03-23T06:11:43;4.47;;;3.63;;
21615;SDS011;10970;48.714;9.584;2023-03-23T06:14:09;4.53;;;4.13;;
21615;SDS011;10970;48.714;9.584;2023-03-23T06:16:34;12.20;;;4.83;;
21615;SDS011;10970;48.714;9.584;2023-03-23T06:19:00;6.20;;;3.47;;
21615;SDS011;10970;48.714;9.584;2023-03-23T06:21:27;4.93;;;3.47;;
21615;SDS011;10970;48.714;9.584;2023-03-23T06:23:54;5.13;;;4.73;;
21615;SDS011;10970;48.714;9.584;2023-03-23T06:26:20;6.33;;;3.87;;
21615;SDS011;10970;48.714;9.584;2023-03-23T06:28:52;6.30;;;3.73;;
21615;SDS011;10970;48.714;9.584;2023-03-23T06:31:17;4.70;;;4.23;;
21615;SDS011;10970;48.714;9.584;2023-03-23T06:33:45;5.80;;;3.70;;
21615;SDS011;10970;48.714;9.584;2023-03-23T06:36:12;5.20;;;3.53;;
21615;SDS011;10970;48.714;9.584;2023-03-23T06:38:38;6.90;;;3.43;;
21615;SDS011;10970;48.714;9.584;2023-03-23T06:41:03;2.70;;;2.50;;
21615;SDS011;10970;48.714;9.584;2023-03-23T06:43:29;6.03;;;4.57;;
21615;SDS011;10970;48.714;9.584;2023-03-23T06:45:58;3.57;;;3.20;;
21615;SDS011;10970;48.714;9.584;2023-03-23T06:48:24;6.70;;;4.90;;
21615;SDS011;10970;48.714;9.584;2023-03-23T06:50:50;6.70;;;2.83;;
21615;SDS011;10970;48.714;9.584;2023-03-23T06:53:16;3.57;;;2.80;;
21615;SDS011;10970;48.714;9.584;2023-03-23T06:55:43;6.83;;;3.37;;
21615;SDS011;10970;48.714;9.584;2023-03-23T06:58:09;4.60;;;3.10;;
21615;SDS011;10970;48.714;9.584;2023-03-23T07:00:35;4.53;;;3.10;;
21615;SDS011;10970;48.714;9.584;2023-03-23T07:03:00;4.60;;;4.10;;
21615;SDS011;10970;48.714;9.584;2023-03-23T07:05:26;7.53;;;4.20;;
21615;SDS011;10970;48.714;9.584;2023-03-23T07:07:52;4.53;;;3.57;;
21615;SDS011;10970;48.714;9.584;2023-03-23T07:10:17;3.93;;;3.50;;
21615;SDS011;10970;48.714;9.584;2023-03-23T07:12:44;4.40;;;3.33;;
21615;SDS011;10970;48.714;9.584;2023-03-23T07:15:10;4.40;;;3.53;;
21615;SDS011;10970;48.714;9.584;2023-03-23T07:17:37;4.90;;;2.60;;
21615;SDS011;10970;48.714;9.584;2023-03-23T07:20:03;6.07;;;3.80;;
21615;SDS011;10970;48.714;9.584;2023-03-23T07:22:30;5.03;;;2.47;;
21615;SDS011;10970;48.714;9.584;2023-03-23T07:24:56;4.80;;;2.67;;
21615;SDS011;10970;48.714;9.584;2023-03-23T07:27:21;3.90;;;3.17;;
21615;SDS011;10970;48.714;9.584;2023-03-23T07:29:47;3.50;;;2.90;;
21615;SDS011;10970;48.714;9.584;2023-03-23T07:32:13;3.00;;;2.63;;
21615;SDS011;10970;48.714;9.584;2023-03-23T07:34:39;3.33;;;2.57;;
21615;SDS011;10970;48.714;9.584;2023-03-23T07:37:06;4.63;;;2.17;;
21615;SDS011;10970;48.714;9.584;2023-03-23T07:39:32;1.83;;;1.53;;
21615;SDS011;10970;48.714;9.584;2023-03-23T07:41:58;3.53;;;2.40;;
21615;SDS011;10970;48.714;9.584;2023-03-23T07:44:24;1.87;;;1.73;;
21615;SDS011;10970;48.714;9.584;2023-03-23T07:46:50;1.90;;;1.80;;
21615;SDS011;10970;48.714;9.584;2023-03-23T07:49:16;2.40;;;2.17;;
21615;SDS011;10970;48.714;9.584;2023-03-23T07:51:42;2.60;;;2.30;;
21615;SDS011;10970;48.714;9.584;2023-03-23T07:54:08;2.07;;;1.87;;
21615;SDS011;10970;48.714;9.584;2023-03-23T07:56:34;4.03;;;3.20;;
21615;SDS011;10970;48.714;9.584;2023-03-23T07:59:01;4.63;;;2.20;;
21615;SDS011;10970;48.714;9.584;2023-03-23T08:01:27;1.93;;;1.73;;
21615;SDS011;10970;48.714;9.584;2023-03-23T08:03:53;2.40;;;2.20;;
21615;SDS011;10970;48.714;9.584;2023-03-23T08:06:22;2.63;;;2.17;;
21615;SDS011;10970;48.714;9.584;2023-03-23T08:08:48;3.43;;;2.20;;
21615;SDS011;10970;48.714;9.584;2023-03-23T08:11:14;2.10;;;1.90;;
21615;SDS011;10970;48.714;9.584;2023-03-23T08:13:40;2.67;;;1.53;;
21615;SDS011;10970;48.714;9.584;2023-03-23T08:16:07;2.13;;;1.93;;
21615;SDS011;10970;48.714;9.584;2023-03-23T08:18:34;4.17;;;3.77;;
21615;SDS011;10970;48.714;9.584;2023-03-23T08:21:01;3.10;;;2.80;;
21615;SDS011;10970;48.714;9.584;2023-03-23T08:23:29;3.03;;;2.57;;
21615;SDS011;10970;48.714;9.584;2023-03-23T08:25:55;2.80;;;2.20;;
21615;SDS011;10970;48.714;9.584;2023-03-23T08:28:21;2.27;;;2.07;;
21615;SDS011;10970;48.714;9.584;2023-03-23T08:30:47;3.60;;;3.27;;
21615;SDS011;10970;48.714;9.584;2023-03-23T08:33:13;3.70;;;2.47;;
21615;SDS011;10970;48.714;9.584;2023-03-23T08:35:39;3.43;;;2.40;;
21615;SDS011;10970;48.714;9.584;2023-03-23T08:38:05;2.80;;;2.33;;
21615;SDS011;10970;48.714;9.584;2023-03-23T08:40:31;2.90;;;2.40;;
21615;SDS011;10970;48.714;9.584;2023-03-23T08:42:57;2.30;;;2.10;;
21615;SDS011;10970;48.714;9.584;2023-03-23T08:45:23;1.80;;;1.70;;
21615;SDS011;10970;48.714;9.584;2023-03-23T08:47:50;2.97;;;2.07;;
21615;SDS011;10970;48.714;9.584;2023-03-23T08:50:21;1.90;;;1.80;;
21615;SDS011;10970;48.714;9.584;2023-03-23T08:52:52;3.27;;;2.13;;
21615;SDS011;10970;48.714;9.584;2023-03-23T08:55:18;5.93;;;2.60;;
21615;SDS011;10970;48.714;9.584;2023-03-23T08:57:45;2.33;;;1.70;;
21615;SDS011;10970;48.714;9.584;2023-03-23T09:00:12;6.20;;;2.80;;
21615;SDS011;10970;48.714;9.584;2023-03-23T09:02:43;2.53;;;2.30;;
21615;SDS011;10970;48.714;9.584;2023-03-23T09:05:10;3.73;;;2.00;;
21615;SDS011;10970;48.714;9.584;2023-03-23T09:07:40;2.43;;;1.83;;
21615;SDS011;10970;48.714;9.584;2023-03-23T09:10:09;1.90;;;1.73;;
21615;SDS011;10970;48.714;9.584;2023-03-23T09:12:35;1.27;;;1.17;;
21615;SDS011;10970;48.714;9.584;2023-03-23T09:15:02;2.43;;;2.23;;
21615;SDS011;10970;48.714;9.584;2023-03-23T09:17:33;2.10;;;1.90;;
21615;SDS011;10970;48.714;9.584;2023-03-23T09:20:07;2.50;;;1.60;;
21615;SDS011;10970;48.714;9.584;2023-03-23T09:22:42;3.03;;;1.63;;
21615;SDS011;10970;48.714;9.584;2023-03-23T09:25:10;4.30;;;2.00;;
21615;SDS011;10970;48.714;9.584;2023-03-23T09:27:38;2.73;;;2.33;;
21615;SDS011;10970;48.714;9.584;2023-03-23T09:30:09;2.97;;;1.97;;
21615;SDS011;10970;48.714;9.584;2023-03-23T09:32:37;2.60;;;1.80;;
21615;SDS011;10970;48.714;9.584;2023-03-23T09:35:04;1.90;;;1.53;;
21615;SDS011;10970;48.714;9.584;2023-03-23T09:37:36;1.87;;;1.67;;
21615;SDS011;10970;48.714;9.584;2023-03-23T09:40:03;1.67;;;1.57;;
21615;SDS011;10970;48.714;9.584;2023-03-23T09:47:48;1.30;;;1.20;;
21615;SDS011;10970;48.714;9.584;2023-03-23T09:50:27;2.70;;;1.50;;
21615;SDS011;10970;48.714;9.584;2023-03-23T09:52:59;1.20;;;1.10;;
21615;SDS011;10970;48.714;9.584;2023-03-23T09:56:00;2.43;;;1.83;;
21615;SDS011;10970;48.714;9.584;2023-03-23T09:58:31;1.90;;;1.80;;
21615;SDS011;10970;48.714;9.584;2023-03-23T10:01:06;1.27;;;1.17;;
21615;SDS011;10970;48.714;9.584;2023-03-23T10:03:41;2.83;;;1.63;;
21615;SDS011;10970;48.714;9.584;2023-03-23T10:06:12;1.77;;;1.40;;
21615;SDS011;10970;48.714;9.584;2023-03-23T10:08:47;1.87;;;1.77;;
21615;SDS011;10970;48.714;9.584;2023-03-23T10:19:27;1.30;;;1.13;;
21615;SDS011;10970;48.714;9.584;2023-03-23T10:22:05;2.27;;;1.63;;
21615;SDS011;10970;48.714;9.584;2023-03-23T10:24:39;1.70;;;1.60;;
21615;SDS011;10970;48.714;9.584;2023-03-23T10:29:46;3.73;;;1.30;;
21615;SDS011;10970;48.714;9.584;2023-03-23T10:32:19;1.40;;;1.10;;
21615;SDS011;10970;48.714;9.584;2023-03-23T10:35:02;1.33;;;1.23;;
21615;SDS011;10970;48.714;9.584;2023-03-23T10:37:36;1.83;;;1.30;;
21615;SDS011;10970;48.714;9.584;2023-03-23T10:40:06;1.97;;;1.80;;
21615;SDS011;10970;48.714;9.584;2023-03-23T10:42:40;1.77;;;1.67;;
21615;SDS011;10970;48.714;9.584;2023-03-23T10:45:14;3.00;;;1.50;;
21615;SDS011;10970;48.714;9.584;2023-03-23T10:47:42;2.50;;;2.20;;
21615;SDS011;10970;48.714;9.584;2023-03-23T10:50:16;1.47;;;1.10;;
21615;SDS011;10970;48.714;9.584;2023-03-23T10:52:47;2.13;;;1.60;;
21615;SDS011;10970;48.714;9.584;2023-03-23T10:55:17;1.20;;;1.00;;
21615;SDS011;10970;48.714;9.584;2023-03-23T10:58:01;1.37;;;1.27;;
21615;SDS011;10970;48.714;9.584;2023-03-23T11:00:29;2.00;;;1.20;;
21615;SDS011;10970;48.714;9.584;2023-03-23T11:08:20;1.77;;;1.20;;
21615;SDS011;10970;48.714;9.584;2023-03-23T11:13:32;1.30;;;1.20;;
21615;SDS011;10970;48.714;9.584;2023-03-23T11:15:59;2.40;;;1.10;;
21615;SDS011;10970;48.714;9.584;2023-03-23T11:18:38;1.53;;;1.40;;
21615;SDS011;10970;48.714;9.584;2023-03-23T11:21:06;1.23;;;1.13;;
21615;SDS011;10970;48.714;9.584;2023-03-23T11:23:37;1.33;;;1.23;;
21615;SDS011;10970;48.714;9.584;2023-03-23T11:28:57;1.97;;;1.50;;
21615;SDS011;10970;48.714;9.584;2023-03-23T11:31:47;1.43;;;1.33;;
21615;SDS011;10970;48.714;9.584;2023-03-23T11:36:49;1.40;;;1.20;;
21615;SDS011;10970;48.714;9.584;2023-03-23T11:39:28;1.83;;;1.47;;
21615;SDS011;10970;48.714;9.584;2023-03-23T11:41:59;3.10;;;1.77;;
21615;SDS011;10970;48.714;9.584;2023-03-23T11:44:31;1.43;;;1.10;;
21615;SDS011;10970;48.714;9.584;2023-03-23T11:47:18;1.23;;;1.20;;
21615;SDS011;10970;48.714;9.584;2023-03-23T11:49:57;4.23;;;1.83;;
21615;SDS011;10970;48.714;9.584;2023-03-23T11:55:53;1.60;;;1.00;;
21615;SDS011;10970;48.714;9.584;2023-03-23T11:58:13;5.73;;;1.70;;
21615;SDS011;10970;48.714;9.584;2023-03-23T12:01:05;2.30;;;1.40;;
21615;SDS011;10970;48.714;9.584;2023-03-23T12:06:35;2.20;;;0.90;;
21615;SDS011;10970;48.714;9.584;2023-03-23T12:20:50;2.17;;;1.40;;
21615;SDS011;10970;48.714;9.584;2023-03-23T12:22:50;3.00;;;1.40;;
21615;SDS011;10970;48.714;9.584;2023-03-23T12:34:24;1.50;;;1.40;;
21615;SDS011;10970;48.714;9.584;2023-03-23T12:37:19;1.17;;;1.07;;
21615;SDS011;10970;48.714;9.584;2023-03-23T12:40:33;1.63;;;1.10;;
21615;SDS011;10970;48.714;9.584;2023-03-23T12:49:22;2.10;;;1.70;;
21615;SDS011;10970;48.714;9.584;2023-03-23T12:51:59;1.97;;;1.87;;
21615;SDS011;10970;48.714;9.584;2023-03-23T12:54:53;1.77;;;1.50;;
21615;SDS011;10970;48.714;9.584;2023-03-23T12:57:48;2.60;;;1.80;;
21615;SDS011;10970;48.714;9.584;2023-03-23T13:00:30;2.53;;;1.50;;
21615;SDS011;10970;48.714;9.584;2023-03-23T13:03:24;2.33;;;1.33;;
21615;SDS011;10970;48.714;9.584;2023-03-23T13:08:42;2.30;;;1.10;;
21615;SDS011;10970;48.714;9.584;2023-03-23T13:11:48;1.43;;;1.20;;
21615;SDS011;10970;48.714;9.584;2023-03-23T13:17:01;3.67;;;2.83;;
21615;SDS011;10970;48.714;9.584;2023-03-23T13:22:06;2.40;;;1.63;;
21615;SDS011;10970;48.714;9.584;2023-03-23T13:24:38;1.70;;;1.57;;
21615;SDS011;10970;48.714;9.584;2023-03-23T13:27:11;1.80;;;1.53;;
21615;SDS011;10970;48.714;9.584;2023-03-23T13:29:43;1.93;;;1.40;;
21615;SDS011;10970;48.714;9.584;2023-03-23T13:32:12;2.63;;;1.47;;
21615;SDS011;10970;48.714;9.584;2023-03-23T13:34:41;1.80;;;1.57;;
21615;SDS011;10970;48.714;9.584;2023-03-23T13:39:56;1.80;;;1.23;;
21615;SDS011;10970;48.714;9.584;2023-03-23T13:42:48;2.10;;;1.50;;
21615;SDS011;10970;48.714;9.584;2023-03-23T13:48:04;1.50;;;1.40;;
21615;SDS011;10970;48.714;9.584;2023-03-23T13:51:21;2.57;;;1.47;;
21615;SDS011;10970;48.714;9.584;2023-03-23T13:53:48;1.97;;;1.27;;
21615;SDS011;10970;48.714;9.584;2023-03-23T13:56:18;2.00;;;1.50;;
21615;SDS011;10970;48.714;9.584;2023-03-23T14:01:15;1.97;;;1.30;;
21615;SDS011;10970;48.714;9.584;2023-03-23T14:03:45;1.90;;;1.17;;
21615;SDS011;10970;48.714;9.584;2023-03-23T14:06:19;1.37;;;1.27;;
21615;SDS011;10970;48.714;9.584;2023-03-23T14:08:50;2.70;;;1.47;;
21615;SDS011;10970;48.714;9.584;2023-03-23T14:11:24;2.57;;;1.30;;
21615;SDS011;10970;48.714;9.584;2023-03-23T14:16:25;1.50;;;1.17;;
21615;SDS011;10970;48.714;9.584;2023-03-23T14:18:57;1.33;;;1.23;;
21615;SDS011;10970;48.714;9.584;2023-03-23T14:22:15;4.47;;;2.10;;
21615;SDS011;10970;48.714;9.584;2023-03-23T14:24:16;1.63;;;1.53;;
21615;SDS011;10970;48.714;9.584;2023-03-23T14:26:51;1.80;;;1.37;;
21615;SDS011;10970;48.714;9.584;2023-03-23T14:29:18;1.93;;;1.50;;
21615;SDS011;10970;48.714;9.584;2023-03-23T14:31:48;2.43;;;1.70;;
21615;SDS011;10970;48.714;9.584;2023-03-23T14:34:21;2.87;;;1.77;;
21615;SDS011;10970;48.714;9.584;2023-03-23T14:36:50;1.30;;;1.20;;
21615;SDS011;10970;48.714;9.584;2023-03-23T14:39:20;2.63;;;1.60;;
21615;SDS011;10970;48.714;9.584;2023-03-23T14:42:03;1.40;;;1.30;;
21615;SDS011;10970;48.714;9.584;2023-03-23T14:44:33;1.70;;;1.60;;
21615;SDS011;10970;48.714;9.584;2023-03-23T14:47:06;1.53;;;1.20;;
21615;SDS011;10970;48.714;9.584;2023-03-23T14:49:40;1.17;;;1.03;;
21615;SDS011;10970;48.714;9.584;2023-03-23T14:52:11;1.67;;;1.43;;
21615;SDS011;10970;48.714;9.584;2023-03-23T14:54:42;1.93;;;1.43;;
21615;SDS011;10970;48.714;9.584;2023-03-23T14:57:13;2.30;;;1.60;;
21615;SDS011;10970;48.714;9.584;2023-03-23T14:59:41;2.60;;;1.60;;
21615;SDS011;10970;48.714;9.584;2023-03-23T15:02:28;2.10;;;1.60;;
21615;SDS011;10970;48.714;9.584;2023-03-23T15:04:57;2.50;;;1.37;;
21615;SDS011;10970;48.714;9.584;2023-03-23T15:07:29;2.40;;;1.30;;
21615;SDS011;10970;48.714;9.584;2023-03-23T15:09:58;2.30;;;1.60;;
21615;SDS011;10970;48.714;9.584;2023-03-23T15:12:25;1.97;;;1.57;;
21615;SDS011;10970;48.714;9.584;2023-03-23T15:14:54;2.40;;;2.20;;
21615;SDS011;10970;48.714;9.584;2023-03-23T15:17:23;3.17;;;1.80;;
21615;SDS011;10970;48.714;9.584;2023-03-23T15:19:52;1.57;;;1.47;;
21615;SDS011;10970;48.714;9.584;2023-03-23T15:24:45;1.80;;;1.60;;
21615;SDS011;10970;48.714;9.584;2023-03-23T15:29:52;1.83;;;1.57;;
21615;SDS011;10970;48.714;9.584;2023-03-23T15:32:21;2.03;;;1.47;;
21615;SDS011;10970;48.714;9.584;2023-03-23T15:34:48;2.63;;;2.13;;
21615;SDS011;10970;48.714;9.584;2023-03-23T15:39:51;2.07;;;1.80;;
21615;SDS011;10970;48.714;9.584;2023-03-23T15:42:22;1.60;;;1.50;;
21615;SDS011;10970;48.714;9.584;2023-03-23T15:44:56;2.50;;;1.60;;
21615;SDS011;10970;48.714;9.584;2023-03-23T15:47:22;3.07;;;2.30;;
21615;SDS011;10970;48.714;9.584;2023-03-23T15:49:59;2.10;;;1.83;;
21615;SDS011;10970;48.714;9.584;2023-03-23T15:52:38;4.73;;;2.43;;
21615;SDS011;10970;48.714;9.584;2023-03-23T15:55:27;2.17;;;1.67;;
21615;SDS011;10970;48.714;9.584;2023-03-23T15:57:51;2.60;;;1.70;;
21615;SDS011;10970;48.714;9.584;2023-03-23T16:00:19;2.30;;;2.10;;
21615;SDS011;10970;48.714;9.584;2023-03-23T16:02:46;2.47;;;1.70;;
21615;SDS011;10970;48.714;9.584;2023-03-23T16:05:16;2.80;;;1.57;;
21615;SDS011;10970;48.714;9.584;2023-03-23T16:07:42;1.43;;;1.33;;
21615;SDS011;10970;48.714;9.584;2023-03-23T16:10:13;3.13;;;2.27;;
21615;SDS011;10970;48.714;9.584;2023-03-23T16:12:41;2.10;;;1.90;;
21615;SDS011;10970;48.714;9.584;2023-03-23T16:15:07;2.23;;;1.70;;
21615;SDS011;10970;48.714;9.584;2023-03-23T16:17:33;2.60;;;1.70;;
21615;SDS011;10970;48.714;9.584;2023-03-23T16:19:59;2.40;;;1.93;;
21615;SDS011;10970;48.714;9.584;2023-03-23T16:22:24;1.67;;;1.47;;
21615;SDS011;10970;48.714;9.584;2023-03-23T16:24:50;2.03;;;1.60;;
21615;SDS011;10970;48.714;9.584;2023-03-23T16:27:16;1.90;;;1.67;;
21615;SDS011;10970;48.714;9.584;2023-03-23T16:29:42;1.90;;;1.53;;
21615;SDS011;10970;48.714;9.584;2023-03-23T16:32:07;4.13;;;2.00;;
21615;SDS011;10970;48.714;9.584;2023-03-23T16:34:33;2.47;;;2.00;;
21615;SDS011;10970;48.714;9.584;2023-03-23T16:37:00;2.90;;;2.00;;
21615;SDS011;10970;48.714;9.584;2023-03-23T16:39:26;4.27;;;2.10;;
21615;SDS011;10970;48.714;9.584;2023-03-23T16:41:52;1.53;;;1.43;;
21615;SDS011;10970;48.714;9.584;2023-03-23T16:44:17;2.20;;;2.00;;
21615;SDS011;10970;48.714;9.584;2023-03-23T16:46:43;2.77;;;1.73;;
21615;SDS011;10970;48.714;9.584;2023-03-23T16:49:09;2.37;;;2.17;;
21615;SDS011;10970;48.714;9.584;2023-03-23T16:51:34;4.40;;;3.40;;
21615;SDS011;10970;48.714;9.584;2023-03-23T16:54:00;3.57;;;2.50;;
21615;SDS011;10970;48.714;9.584;2023-03-23T16:56:26;2.93;;;2.37;;